sensor_id;sensor_type;location;lat;lon;timestamp;temperature;humidity
9193;DHT22;4631;49.296;10.560;2023-04-03T00:01:14;3.30;99.90
9193;DHT22;4631;49.296;10.560;2023-04-03T00:03:42;3.30;99.90
9193;DHT22;4631;49.296;10.560;2023-04-03T00:06:09;3.40;99.90
9193;DHT22;4631;49.296;10.560;2023-04-03T00:08:37;3.40;99.90
9193;DHT22;4631;49.296;10.560;2023-04-03T00:11:04;3.40;99.90
9193;DHT22;4631;49.296;10.560;2023-04-03T00:13:31;3.30;99.90
9193;DHT22;4631;49.296;10.560;2023-04-03T00:15:58;3.40;99.90
9193;DHT22;4631;49.296;10.560;2023-04-03T00:18:25;3.30;99.90
9193;DHT22;4631;49.296;10.560;2023-04-03T00:20:53;3.40;99.90
9193;DHT22;4631;49.296;10.560;2023-04-03T00:23:19;3.40;99.90
9193;DHT22;4631;49.296;10.560;2023-04-03T00:25:46;3.40;99.90
9193;DHT22;4631;49.296;10.560;2023-04-03T00:28:12;3.40;99.90
9193;DHT22;4631;49.296;10.560;2023-04-03T00:30:39;3.40;99.90
9193;DHT22;4631;49.296;10.560;2023-04-03T00:33:06;3.40;99.90
9193;DHT22;4631;49.296;10.560;2023-04-03T00:35:33;3.40;99.90
9193;DHT22;4631;49.296;10.560;2023-04-03T00:38:01;3.40;99.90
9193;DHT22;4631;49.296;10.560;2023-04-03T00:40:32;3.40;99.90
9193;DHT22;4631;49.296;10.560;2023-04-03T00:42:59;3.30;99.90
9193;DHT22;4631;49.296;10.560;2023-04-03T00:45:29;3.30;99.90
9193;DHT22;4631;49.296;10.560;2023-04-03T00:47:57;3.20;99.90
9193;DHT22;4631;49.296;10.560;2023-04-03T00:50:26;3.20;99.90
9193;DHT22;4631;49.296;10.560;2023-04-03T00:52:52;3.20;99.90
9193;DHT22;4631;49.296;10.560;2023-04-03T00:55:21;3.20;99.90
9193;DHT22;4631;49.296;10.560;2023-04-03T00:57:47;3.10;99.90
9193;DHT22;4631;49.296;10.560;2023-04-03T01:00:16;3.10;99.90
9193;DHT22;4631;49.296;10.560;2023-04-03T01:02:43;3.20;99.90
9193;DHT22;4631;49.296;10.560;2023-04-03T01:05:10;3.10;99.90
9193;DHT22;4631;49.296;10.560;2023-04-03T01:07:37;3.10;99.90
9193;DHT22;4631;49.296;10.560;2023-04-03T01:10:04;3.20;99.90
9193;DHT22;4631;49.296;10.560;2023-04-03T01:12:33;3.20;99.90
9193;DHT22;4631;49.296;10.560;2023-04-03T01:15:01;3.20;99.90
9193;DHT22;4631;49.296;10.560;2023-04-03T01:17:28;3.10;99.90
9193;DHT22;4631;49.296;10.560;2023-04-03T01:20:00;3.10;99.90
9193;DHT22;4631;49.296;10.560;2023-04-03T01:22:29;3.10;99.90
9193;DHT22;4631;49.296;10.560;2023-04-03T01:24:57;3.10;99.90
9193;DHT22;4631;49.296;10.560;2023-04-03T01:27:23;3.20;99.90
9193;DHT22;4631;49.296;10.560;2023-04-03T01:29:52;3.20;99.90
9193;DHT22;4631;49.296;10.560;2023-04-03T01:32:21;3.20;99.90
9193;DHT22;4631;49.296;10.560;2023-04-03T01:34:47;3.10;99.90
9193;DHT22;4631;49.296;10.560;2023-04-03T01:37:14;3.10;99.90
9193;DHT22;4631;49.296;10.560;2023-04-03T01:39:40;3.10;99.90
9193;DHT22;4631;49.296;10.560;2023-04-03T01:42:07;3.10;99.90
9193;DHT22;4631;49.296;10.560;2023-04-03T01:44:34;3.10;99.90
9193;DHT22;4631;49.296;10.560;2023-04-03T01:47:04;3.10;99.90
9193;DHT22;4631;49.296;10.560;2023-04-03T01:49:33;3.10;99.90
9193;DHT22;4631;49.296;10.560;2023-04-03T01:51:59;3.10;99.90
9193;DHT22;4631;49.296;10.560;2023-04-03T01:54:26;3.00;99.90
9193;DHT22;4631;49.296;10.560;2023-04-03T01:56:52;3.00;99.90
9193;DHT22;4631;49.296;10.560;2023-04-03T01:59:19;3.00;99.90
9193;DHT22;4631;49.296;10.560;2023-04-03T02:01:46;2.90;99.90
9193;DHT22;4631;49.296;10.560;2023-04-03T02:04:12;3.00;99.90
9193;DHT22;4631;49.296;10.560;2023-04-03T02:06:40;2.90;99.90
9193;DHT22;4631;49.296;10.560;2023-04-03T02:09:07;2.90;99.90
9193;DHT22;4631;49.296;10.560;2023-04-03T02:11:34;2.90;99.90
9193;DHT22;4631;49.296;10.560;2023-04-03T02:14:00;2.90;99.90
9193;DHT22;4631;49.296;10.560;2023-04-03T02:16:27;2.90;99.90
9193;DHT22;4631;49.296;10.560;2023-04-03T02:18:54;2.90;99.90
9193;DHT22;4631;49.296;10.560;2023-04-03T02:21:20;3.60;99.90
9193;DHT22;4631;49.296;10.560;2023-04-03T02:23:48;2.80;99.90
9193;DHT22;4631;49.296;10.560;2023-04-03T02:26:15;2.80;99.90
9193;DHT22;4631;49.296;10.560;2023-04-03T02:28:43;2.80;99.90
9193;DHT22;4631;49.296;10.560;2023-04-03T02:31:09;2.70;99.90
9193;DHT22;4631;49.296;10.560;2023-04-03T02:33:36;2.70;99.90
9193;DHT22;4631;49.296;10.560;2023-04-03T02:36:03;2.70;99.90
9193;DHT22;4631;49.296;10.560;2023-04-03T02:38:31;2.70;99.90
9193;DHT22;4631;49.296;10.560;2023-04-03T02:41:00;2.70;99.90
9193;DHT22;4631;49.296;10.560;2023-04-03T02:43:27;2.70;99.90
9193;DHT22;4631;49.296;10.560;2023-04-03T02:45:57;2.70;99.90
9193;DHT22;4631;49.296;10.560;2023-04-03T02:48:24;2.60;99.90
9193;DHT22;4631;49.296;10.560;2023-04-03T02:50:50;2.60;99.90
9193;DHT22;4631;49.296;10.560;2023-04-03T02:53:17;2.60;99.90
9193;DHT22;4631;49.296;10.560;2023-04-03T02:55:44;2.60;99.90
9193;DHT22;4631;49.296;10.560;2023-04-03T02:58:12;2.60;99.90
9193;DHT22;4631;49.296;10.560;2023-04-03T03:00:39;2.60;99.90
9193;DHT22;4631;49.296;10.560;2023-04-03T03:03:05;2.60;99.90
9193;DHT22;4631;49.296;10.560;2023-04-03T03:05:32;2.60;99.90
9193;DHT22;4631;49.296;10.560;2023-04-03T03:07:59;2.50;99.90
9193;DHT22;4631;49.296;10.560;2023-04-03T03:10:25;2.50;99.90
9193;DHT22;4631;49.296;10.560;2023-04-03T03:12:52;2.50;99.90
9193;DHT22;4631;49.296;10.560;2023-04-03T03:15:20;2.50;99.90
9193;DHT22;4631;49.296;10.560;2023-04-03T03:17:47;2.50;99.90
9193;DHT22;4631;49.296;10.560;2023-04-03T03:20:13;2.40;99.90
9193;DHT22;4631;49.296;10.560;2023-04-03T03:22:40;2.40;99.90
9193;DHT22;4631;49.296;10.560;2023-04-03T03:25:07;2.40;99.90
9193;DHT22;4631;49.296;10.560;2023-04-03T03:27:34;2.40;99.90
9193;DHT22;4631;49.296;10.560;2023-04-03T03:30:01;2.40;99.90
9193;DHT22;4631;49.296;10.560;2023-04-03T03:32:29;2.40;99.90
9193;DHT22;4631;49.296;10.560;2023-04-03T03:34:55;2.40;99.90
9193;DHT22;4631;49.296;10.560;2023-04-03T03:37:22;2.40;99.90
9193;DHT22;4631;49.296;10.560;2023-04-03T03:39:49;2.30;99.90
9193;DHT22;4631;49.296;10.560;2023-04-03T03:42:15;2.30;99.90
9193;DHT22;4631;49.296;10.560;2023-04-03T03:44:42;2.20;99.90
9193;DHT22;4631;49.296;10.560;2023-04-03T03:47:08;2.20;99.90
9193;DHT22;4631;49.296;10.560;2023-04-03T03:49:37;2.20;99.90
9193;DHT22;4631;49.296;10.560;2023-04-03T03:52:04;2.20;99.90
9193;DHT22;4631;49.296;10.560;2023-04-03T03:54:30;2.10;99.90
9193;DHT22;4631;49.296;10.560;2023-04-03T03:56:57;2.10;99.90
9193;DHT22;4631;49.296;10.560;2023-04-03T03:59:24;2.10;99.90
9193;DHT22;4631;49.296;10.560;2023-04-03T04:01:50;2.00;99.90
9193;DHT22;4631;49.296;10.560;2023-04-03T04:04:17;2.00;99.90
9193;DHT22;4631;49.296;10.560;2023-04-03T04:06:45;1.90;99.90
9193;DHT22;4631;49.296;10.560;2023-04-03T04:09:12;2.00;99.90
9193;DHT22;4631;49.296;10.560;2023-04-03T04:11:38;2.00;99.90
9193;DHT22;4631;49.296;10.560;2023-04-03T04:14:05;1.90;99.90
9193;DHT22;4631;49.296;10.560;2023-04-03T04:16:32;1.90;99.90
9193;DHT22;4631;49.296;10.560;2023-04-03T04:18:59;2.00;99.90
9193;DHT22;4631;49.296;10.560;2023-04-03T04:21:25;1.90;99.90
9193;DHT22;4631;49.296;10.560;2023-04-03T04:23:53;1.90;99.90
9193;DHT22;4631;49.296;10.560;2023-04-03T04:26:20;1.90;99.90
9193;DHT22;4631;49.296;10.560;2023-04-03T04:28:46;1.90;99.90
9193;DHT22;4631;49.296;10.560;2023-04-03T04:31:13;1.90;99.90
9193;DHT22;4631;49.296;10.560;2023-04-03T04:33:40;2.00;99.90
9193;DHT22;4631;49.296;10.560;2023-04-03T04:36:06;2.00;99.90
9193;DHT22;4631;49.296;10.560;2023-04-03T04:38:33;1.90;99.90
9193;DHT22;4631;49.296;10.560;2023-04-03T04:41:02;2.00;99.90
9193;DHT22;4631;49.296;10.560;2023-04-03T04:43:28;2.00;99.90
9193;DHT22;4631;49.296;10.560;2023-04-03T04:46:01;2.00;99.90
9193;DHT22;4631;49.296;10.560;2023-04-03T04:48:28;1.90;99.90
9193;DHT22;4631;49.296;10.560;2023-04-03T04:51:02;1.90;99.90
9193;DHT22;4631;49.296;10.560;2023-04-03T04:53:29;1.90;99.90
9193;DHT22;4631;49.296;10.560;2023-04-03T04:55:55;1.80;99.90
9193;DHT22;4631;49.296;10.560;2023-04-03T04:58:23;1.80;99.90
9193;DHT22;4631;49.296;10.560;2023-04-03T05:00:57;1.80;99.90
9193;DHT22;4631;49.296;10.560;2023-04-03T05:03:24;1.80;99.90
9193;DHT22;4631;49.296;10.560;2023-04-03T05:08:22;1.80;99.90
9193;DHT22;4631;49.296;10.560;2023-04-03T05:10:49;1.80;99.90
9193;DHT22;4631;49.296;10.560;2023-04-03T05:13:16;1.80;99.90
9193;DHT22;4631;49.296;10.560;2023-04-03T05:15:44;1.80;99.90
9193;DHT22;4631;49.296;10.560;2023-04-03T05:18:11;1.80;99.90
9193;DHT22;4631;49.296;10.560;2023-04-03T05:20:38;1.80;99.90
9193;DHT22;4631;49.296;10.560;2023-04-03T05:23:05;1.80;99.90
9193;DHT22;4631;49.296;10.560;2023-04-03T05:25:31;1.80;99.90
9193;DHT22;4631;49.296;10.560;2023-04-03T05:27:58;1.80;99.90
9193;DHT22;4631;49.296;10.560;2023-04-03T05:30:25;1.80;99.90
9193;DHT22;4631;49.296;10.560;2023-04-03T05:32:53;1.80;99.90
9193;DHT22;4631;49.296;10.560;2023-04-03T05:35:20;1.80;99.90
9193;DHT22;4631;49.296;10.560;2023-04-03T05:37:46;1.90;99.90
9193;DHT22;4631;49.296;10.560;2023-04-03T05:40:13;1.80;99.90
9193;DHT22;4631;49.296;10.560;2023-04-03T05:42:39;1.80;99.90
9193;DHT22;4631;49.296;10.560;2023-04-03T05:45:06;1.80;99.90
9193;DHT22;4631;49.296;10.560;2023-04-03T05:47:33;1.80;99.90
9193;DHT22;4631;49.296;10.560;2023-04-03T05:50:01;1.80;99.90
9193;DHT22;4631;49.296;10.560;2023-04-03T05:52:28;1.90;99.90
9193;DHT22;4631;49.296;10.560;2023-04-03T05:54:55;1.90;99.90
9193;DHT22;4631;49.296;10.560;2023-04-03T05:57:22;1.90;99.90
9193;DHT22;4631;49.296;10.560;2023-04-03T05:59:49;2.00;99.90
9193;DHT22;4631;49.296;10.560;2023-04-03T06:02:16;2.00;99.90
9193;DHT22;4631;49.296;10.560;2023-04-03T06:04:43;2.00;99.90
9193;DHT22;4631;49.296;10.560;2023-04-03T06:07:14;2.10;99.90
9193;DHT22;4631;49.296;10.560;2023-04-03T06:09:42;2.10;99.90
9193;DHT22;4631;49.296;10.560;2023-04-03T06:12:08;2.00;99.90
9193;DHT22;4631;49.296;10.560;2023-04-03T06:14:35;2.00;99.90
9193;DHT22;4631;49.296;10.560;2023-04-03T06:17:02;2.00;99.90
9193;DHT22;4631;49.296;10.560;2023-04-03T06:21:59;2.00;99.90
9193;DHT22;4631;49.296;10.560;2023-04-03T06:24:27;2.10;99.90
9193;DHT22;4631;49.296;10.560;2023-04-03T06:26:53;2.10;99.90
9193;DHT22;4631;49.296;10.560;2023-04-03T06:29:20;2.10;99.90
9193;DHT22;4631;49.296;10.560;2023-04-03T06:31:47;2.20;99.90
9193;DHT22;4631;49.296;10.560;2023-04-03T06:34:14;2.10;99.90
9193;DHT22;4631;49.296;10.560;2023-04-03T06:36:42;2.20;99.90
9193;DHT22;4631;49.296;10.560;2023-04-03T06:39:09;2.20;99.90
9193;DHT22;4631;49.296;10.560;2023-04-03T06:41:39;2.30;99.90
9193;DHT22;4631;49.296;10.560;2023-04-03T06:44:06;2.30;99.90
9193;DHT22;4631;49.296;10.560;2023-04-03T06:46:36;2.30;99.90
9193;DHT22;4631;49.296;10.560;2023-04-03T06:49:03;2.30;99.90
9193;DHT22;4631;49.296;10.560;2023-04-03T06:51:30;2.30;99.90
9193;DHT22;4631;49.296;10.560;2023-04-03T06:53:57;2.30;99.90
9193;DHT22;4631;49.296;10.560;2023-04-03T06:56:24;2.30;99.90
9193;DHT22;4631;49.296;10.560;2023-04-03T06:58:53;2.40;99.90
9193;DHT22;4631;49.296;10.560;2023-04-03T07:01:20;2.30;99.90
9193;DHT22;4631;49.296;10.560;2023-04-03T07:03:46;2.30;99.90
9193;DHT22;4631;49.296;10.560;2023-04-03T07:06:16;2.40;99.90
9193;DHT22;4631;49.296;10.560;2023-04-03T07:08:42;2.30;99.90
9193;DHT22;4631;49.296;10.560;2023-04-03T07:11:10;2.30;99.90
9193;DHT22;4631;49.296;10.560;2023-04-03T07:13:37;2.40;99.90
9193;DHT22;4631;49.296;10.560;2023-04-03T07:16:06;2.40;99.90
9193;DHT22;4631;49.296;10.560;2023-04-03T07:18:33;2.40;99.90
9193;DHT22;4631;49.296;10.560;2023-04-03T07:21:00;2.50;99.90
9193;DHT22;4631;49.296;10.560;2023-04-03T07:23:27;2.50;99.90
9193;DHT22;4631;49.296;10.560;2023-04-03T07:25:54;2.50;99.90
9193;DHT22;4631;49.296;10.560;2023-04-03T07:28:21;2.50;99.90
9193;DHT22;4631;49.296;10.560;2023-04-03T07:30:48;2.50;99.90
9193;DHT22;4631;49.296;10.560;2023-04-03T07:33:17;2.50;99.90
9193;DHT22;4631;49.296;10.560;2023-04-03T07:35:45;2.50;99.90
9193;DHT22;4631;49.296;10.560;2023-04-03T07:38:12;2.50;99.90
9193;DHT22;4631;49.296;10.560;2023-04-03T07:40:39;2.60;99.90
9193;DHT22;4631;49.296;10.560;2023-04-03T07:43:06;2.60;99.90
9193;DHT22;4631;49.296;10.560;2023-04-03T07:45:34;2.60;99.90
9193;DHT22;4631;49.296;10.560;2023-04-03T07:48:01;2.70;99.90
9193;DHT22;4631;49.296;10.560;2023-04-03T07:50:35;2.70;99.90
9193;DHT22;4631;49.296;10.560;2023-04-03T07:53:02;2.80;99.90
9193;DHT22;4631;49.296;10.560;2023-04-03T07:55:29;2.90;99.90
9193;DHT22;4631;49.296;10.560;2023-04-03T07:57:55;2.90;99.90
9193;DHT22;4631;49.296;10.560;2023-04-03T08:00:23;2.90;99.90
9193;DHT22;4631;49.296;10.560;2023-04-03T08:02:50;2.90;99.90
9193;DHT22;4631;49.296;10.560;2023-04-03T08:05:17;2.90;99.90
9193;DHT22;4631;49.296;10.560;2023-04-03T08:07:45;3.00;99.90
9193;DHT22;4631;49.296;10.560;2023-04-03T08:10:12;3.10;99.90
9193;DHT22;4631;49.296;10.560;2023-04-03T08:12:38;3.10;99.90
9193;DHT22;4631;49.296;10.560;2023-04-03T08:15:05;3.20;99.90
9193;DHT22;4631;49.296;10.560;2023-04-03T08:17:32;3.20;99.90
9193;DHT22;4631;49.296;10.560;2023-04-03T08:19:59;3.30;99.90
9193;DHT22;4631;49.296;10.560;2023-04-03T08:22:26;3.40;99.90
9193;DHT22;4631;49.296;10.560;2023-04-03T08:24:54;3.40;99.90
9193;DHT22;4631;49.296;10.560;2023-04-03T08:27:20;3.50;99.90
9193;DHT22;4631;49.296;10.560;2023-04-03T08:29:47;3.50;99.90
9193;DHT22;4631;49.296;10.560;2023-04-03T08:32:13;3.50;99.90
9193;DHT22;4631;49.296;10.560;2023-04-03T08:34:42;3.60;99.90
9193;DHT22;4631;49.296;10.560;2023-04-03T08:37:08;3.60;99.90
9193;DHT22;4631;49.296;10.560;2023-04-03T08:39:36;3.70;99.90
9193;DHT22;4631;49.296;10.560;2023-04-03T08:42:05;3.80;99.90
9193;DHT22;4631;49.296;10.560;2023-04-03T08:47:08;3.80;99.90
9193;DHT22;4631;49.296;10.560;2023-04-03T08:49:39;3.80;99.90
9193;DHT22;4631;49.296;10.560;2023-04-03T08:52:12;3.90;99.90
9193;DHT22;4631;49.296;10.560;2023-04-03T08:54:41;4.00;99.90
9193;DHT22;4631;49.296;10.560;2023-04-03T08:57:11;4.10;99.90
9193;DHT22;4631;49.296;10.560;2023-04-03T08:59:37;4.10;99.90
9193;DHT22;4631;49.296;10.560;2023-04-03T09:02:12;4.20;99.90
9193;DHT22;4631;49.296;10.560;2023-04-03T09:04:43;4.10;99.90
9193;DHT22;4631;49.296;10.560;2023-04-03T09:07:11;4.10;99.90
9193;DHT22;4631;49.296;10.560;2023-04-03T09:09:40;4.10;99.90
9193;DHT22;4631;49.296;10.560;2023-04-03T09:12:12;4.20;99.90
9193;DHT22;4631;49.296;10.560;2023-04-03T09:14:42;4.30;99.90
9193;DHT22;4631;49.296;10.560;2023-04-03T09:17:12;4.40;99.90
9193;DHT22;4631;49.296;10.560;2023-04-03T09:19:45;4.40;99.90
9193;DHT22;4631;49.296;10.560;2023-04-03T09:22:17;4.40;99.90
9193;DHT22;4631;49.296;10.560;2023-04-03T09:24:45;4.40;99.90
9193;DHT22;4631;49.296;10.560;2023-04-03T09:27:14;4.40;99.90
9193;DHT22;4631;49.296;10.560;2023-04-03T09:29:42;4.40;99.90
9193;DHT22;4631;49.296;10.560;2023-04-03T09:32:22;4.30;99.90
9193;DHT22;4631;49.296;10.560;2023-04-03T09:34:51;4.40;99.90
9193;DHT22;4631;49.296;10.560;2023-04-03T09:37:36;4.50;99.90
9193;DHT22;4631;49.296;10.560;2023-04-03T09:40:04;4.50;99.90
9193;DHT22;4631;49.296;10.560;2023-04-03T09:42:34;4.60;99.90
9193;DHT22;4631;49.296;10.560;2023-04-03T09:45:18;4.70;99.90
9193;DHT22;4631;49.296;10.560;2023-04-03T09:47:47;4.80;99.90
9193;DHT22;4631;49.296;10.560;2023-04-03T09:50:19;4.80;99.90
9193;DHT22;4631;49.296;10.560;2023-04-03T09:52:46;4.80;99.90
9193;DHT22;4631;49.296;10.560;2023-04-03T09:55:14;4.90;99.90
9193;DHT22;4631;49.296;10.560;2023-04-03T09:57:43;5.00;99.90
9193;DHT22;4631;49.296;10.560;2023-04-03T10:00:19;5.00;99.90
9193;DHT22;4631;49.296;10.560;2023-04-03T10:02:47;5.00;99.90
9193;DHT22;4631;49.296;10.560;2023-04-03T10:05:25;5.00;99.90
9193;DHT22;4631;49.296;10.560;2023-04-03T10:07:53;5.00;99.90
9193;DHT22;4631;49.296;10.560;2023-04-03T10:10:33;5.00;99.90
9193;DHT22;4631;49.296;10.560;2023-04-03T10:13:07;5.00;99.90
9193;DHT22;4631;49.296;10.560;2023-04-03T10:15:40;4.90;99.90
9193;DHT22;4631;49.296;10.560;2023-04-03T10:18:10;5.00;99.90
9193;DHT22;4631;49.296;10.560;2023-04-03T10:20:42;5.00;99.90
9193;DHT22;4631;49.296;10.560;2023-04-03T10:23:15;5.00;99.90
9193;DHT22;4631;49.296;10.560;2023-04-03T10:25:43;5.10;99.90
9193;DHT22;4631;49.296;10.560;2023-04-03T10:28:16;5.10;99.90
9193;DHT22;4631;49.296;10.560;2023-04-03T10:30:47;5.20;99.90
9193;DHT22;4631;49.296;10.560;2023-04-03T10:33:20;5.20;99.90
9193;DHT22;4631;49.296;10.560;2023-04-03T10:35:49;5.30;99.90
9193;DHT22;4631;49.296;10.560;2023-04-03T10:38:21;5.30;99.90
9193;DHT22;4631;49.296;10.560;2023-04-03T10:40:50;5.40;99.90
9193;DHT22;4631;49.296;10.560;2023-04-03T10:43:21;5.40;99.90
9193;DHT22;4631;49.296;10.560;2023-04-03T10:45:53;5.60;99.90
9193;DHT22;4631;49.296;10.560;2023-04-03T10:48:24;5.70;99.90
9193;DHT22;4631;49.296;10.560;2023-04-03T10:50:56;5.80;99.90
9193;DHT22;4631;49.296;10.560;2023-04-03T10:53:24;5.90;99.90
9193;DHT22;4631;49.296;10.560;2023-04-03T10:55:55;5.90;99.90
9193;DHT22;4631;49.296;10.560;2023-04-03T10:58:28;5.80;99.90
9193;DHT22;4631;49.296;10.560;2023-04-03T11:00:56;5.70;99.90
9193;DHT22;4631;49.296;10.560;2023-04-03T11:03:27;5.70;99.90
9193;DHT22;4631;49.296;10.560;2023-04-03T11:05:56;5.70;99.90
9193;DHT22;4631;49.296;10.560;2023-04-03T11:08:25;5.50;99.90
9193;DHT22;4631;49.296;10.560;2023-04-03T11:10:53;5.50;99.90
9193;DHT22;4631;49.296;10.560;2023-04-03T11:13:23;5.70;99.90
9193;DHT22;4631;49.296;10.560;2023-04-03T11:15:53;5.50;99.90
9193;DHT22;4631;49.296;10.560;2023-04-03T11:18:20;5.50;99.90
9193;DHT22;4631;49.296;10.560;2023-04-03T11:20:50;5.50;99.90
9193;DHT22;4631;49.296;10.560;2023-04-03T11:23:21;5.60;99.90
9193;DHT22;4631;49.296;10.560;2023-04-03T11:25:49;5.60;99.90
9193;DHT22;4631;49.296;10.560;2023-04-03T11:28:16;5.70;99.90
9193;DHT22;4631;49.296;10.560;2023-04-03T11:30:44;5.70;99.90
9193;DHT22;4631;49.296;10.560;2023-04-03T11:33:23;5.70;99.90
9193;DHT22;4631;49.296;10.560;2023-04-03T11:35:51;5.90;99.90
9193;DHT22;4631;49.296;10.560;2023-04-03T11:38:21;5.90;99.90
9193;DHT22;4631;49.296;10.560;2023-04-03T11:40:48;5.90;99.90
9193;DHT22;4631;49.296;10.560;2023-04-03T11:43:21;6.20;99.90
9193;DHT22;4631;49.296;10.560;2023-04-03T11:45:55;6.50;99.90
9193;DHT22;4631;49.296;10.560;2023-04-03T11:48:45;6.50;99.90
9193;DHT22;4631;49.296;10.560;2023-04-03T11:56:43;7.10;99.90
9193;DHT22;4631;49.296;10.560;2023-04-03T11:59:19;7.40;99.90
9193;DHT22;4631;49.296;10.560;2023-04-03T12:01:47;7.70;99.90
9193;DHT22;4631;49.296;10.560;2023-04-03T12:04:16;8.00;99.90
9193;DHT22;4631;49.296;10.560;2023-04-03T12:09:26;7.90;99.90
9193;DHT22;4631;49.296;10.560;2023-04-03T12:11:53;7.60;99.90
9193;DHT22;4631;49.296;10.560;2023-04-03T12:14:22;7.60;99.90
9193;DHT22;4631;49.296;10.560;2023-04-03T12:16:49;7.90;99.90
9193;DHT22;4631;49.296;10.560;2023-04-03T12:22:10;7.60;99.90
9193;DHT22;4631;49.296;10.560;2023-04-03T12:24:37;7.20;99.90
9193;DHT22;4631;49.296;10.560;2023-04-03T12:27:09;7.00;99.90
9193;DHT22;4631;49.296;10.560;2023-04-03T12:29:42;6.80;99.90
9193;DHT22;4631;49.296;10.560;2023-04-03T12:32:13;6.60;99.90
9193;DHT22;4631;49.296;10.560;2023-04-03T12:34:46;6.50;99.90
9193;DHT22;4631;49.296;10.560;2023-04-03T12:37:19;6.70;99.90
9193;DHT22;4631;49.296;10.560;2023-04-03T12:39:55;7.10;99.90
9193;DHT22;4631;49.296;10.560;2023-04-03T12:42:32;7.30;99.90
9193;DHT22;4631;49.296;10.560;2023-04-03T12:45:03;7.20;99.90
9193;DHT22;4631;49.296;10.560;2023-04-03T12:47:36;7.10;99.90
9193;DHT22;4631;49.296;10.560;2023-04-03T12:50:04;6.80;99.90
9193;DHT22;4631;49.296;10.560;2023-04-03T12:52:37;6.60;99.90
9193;DHT22;4631;49.296;10.560;2023-04-03T12:55:08;6.50;99.90
9193;DHT22;4631;49.296;10.560;2023-04-03T12:57:35;6.80;99.90
9193;DHT22;4631;49.296;10.560;2023-04-03T13:02:44;7.00;99.90
9193;DHT22;4631;49.296;10.560;2023-04-03T13:05:14;6.90;99.90
9193;DHT22;4631;49.296;10.560;2023-04-03T13:07:42;6.70;99.90
9193;DHT22;4631;49.296;10.560;2023-04-03T13:10:14;6.70;99.90
9193;DHT22;4631;49.296;10.560;2023-04-03T13:12:46;6.60;99.90
9193;DHT22;4631;49.296;10.560;2023-04-03T13:15:14;6.50;99.90
9193;DHT22;4631;49.296;10.560;2023-04-03T13:17:41;6.70;99.90
9193;DHT22;4631;49.296;10.560;2023-04-03T13:20:12;6.80;99.90
9193;DHT22;4631;49.296;10.560;2023-04-03T13:22:45;7.10;99.90
9193;DHT22;4631;49.296;10.560;2023-04-03T13:25:13;7.40;99.90
9193;DHT22;4631;49.296;10.560;2023-04-03T13:27:41;7.60;99.90
9193;DHT22;4631;49.296;10.560;2023-04-03T13:30:17;7.90;99.90
9193;DHT22;4631;49.296;10.560;2023-04-03T13:32:45;8.40;99.90
9193;DHT22;4631;49.296;10.560;2023-04-03T13:35:26;9.10;99.90
9193;DHT22;4631;49.296;10.560;2023-04-03T13:37:57;9.50;99.90
9193;DHT22;4631;49.296;10.560;2023-04-03T13:40:24;10.00;99.90
9193;DHT22;4631;49.296;10.560;2023-04-03T13:42:58;10.20;99.90
9193;DHT22;4631;49.296;10.560;2023-04-03T13:45:26;10.20;99.90
9193;DHT22;4631;49.296;10.560;2023-04-03T13:48:06;10.00;99.90
9193;DHT22;4631;49.296;10.560;2023-04-03T13:50:33;9.10;99.90
9193;DHT22;4631;49.296;10.560;2023-04-03T13:53:17;8.40;99.90
9193;DHT22;4631;49.296;10.560;2023-04-03T13:55:53;8.00;99.90
9193;DHT22;4631;49.296;10.560;2023-04-03T13:58:22;7.50;99.90
9193;DHT22;4631;49.296;10.560;2023-04-03T14:00:50;7.20;99.90
9193;DHT22;4631;49.296;10.560;2023-04-03T14:03:19;7.00;99.90
9193;DHT22;4631;49.296;10.560;2023-04-03T14:05:47;7.10;99.90
9193;DHT22;4631;49.296;10.560;2023-04-03T14:08:14;7.40;99.90
9193;DHT22;4631;49.296;10.560;2023-04-03T14:10:44;7.70;99.90
9193;DHT22;4631;49.296;10.560;2023-04-03T14:13:12;8.20;99.90
9193;DHT22;4631;49.296;10.560;2023-04-03T14:15:42;8.50;99.90
9193;DHT22;4631;49.296;10.560;2023-04-03T14:18:10;9.00;99.90
9193;DHT22;4631;49.296;10.560;2023-04-03T14:20:38;9.40;99.90
9193;DHT22;4631;49.296;10.560;2023-04-03T14:23:04;9.90;99.90
9193;DHT22;4631;49.296;10.560;2023-04-03T14:25:31;10.00;99.90
9193;DHT22;4631;49.296;10.560;2023-04-03T14:28:07;10.00;99.90
9193;DHT22;4631;49.296;10.560;2023-04-03T14:30:45;9.80;99.90
9193;DHT22;4631;49.296;10.560;2023-04-03T14:33:13;9.30;99.90
9193;DHT22;4631;49.296;10.560;2023-04-03T14:35:40;8.90;99.90
9193;DHT22;4631;49.296;10.560;2023-04-03T14:38:11;8.50;99.90
9193;DHT22;4631;49.296;10.560;2023-04-03T14:40:39;8.50;99.90
9193;DHT22;4631;49.296;10.560;2023-04-03T14:43:10;8.90;99.90
9193;DHT22;4631;49.296;10.560;2023-04-03T14:45:38;9.30;99.90
9193;DHT22;4631;49.296;10.560;2023-04-03T14:48:06;9.80;99.90
9193;DHT22;4631;49.296;10.560;2023-04-03T14:50:36;10.20;99.90
9193;DHT22;4631;49.296;10.560;2023-04-03T14:53:04;10.40;99.90
9193;DHT22;4631;49.296;10.560;2023-04-03T14:55:34;10.20;99.90
9193;DHT22;4631;49.296;10.560;2023-04-03T14:58:00;9.90;99.90
9193;DHT22;4631;49.296;10.560;2023-04-03T15:00:28;9.30;98.90
9193;DHT22;4631;49.296;10.560;2023-04-03T15:02:55;8.90;99.00
9193;DHT22;4631;49.296;10.560;2023-04-03T15:05:22;8.50;99.90
9193;DHT22;4631;49.296;10.560;2023-04-03T15:07:49;8.20;99.90
9193;DHT22;4631;49.296;10.560;2023-04-03T15:10:18;8.40;99.90
9193;DHT22;4631;49.296;10.560;2023-04-03T15:12:46;8.90;99.90
9193;DHT22;4631;49.296;10.560;2023-04-03T15:15:13;9.30;99.90
9193;DHT22;4631;49.296;10.560;2023-04-03T15:17:41;9.50;99.90
9193;DHT22;4631;49.296;10.560;2023-04-03T15:20:13;9.50;99.90
9193;DHT22;4631;49.296;10.560;2023-04-03T15:22:40;9.10;99.90
9193;DHT22;4631;49.296;10.560;2023-04-03T15:25:07;8.60;99.90
9193;DHT22;4631;49.296;10.560;2023-04-03T15:27:34;8.20;99.90
9193;DHT22;4631;49.296;10.560;2023-04-03T15:30:01;8.20;99.90
9193;DHT22;4631;49.296;10.560;2023-04-03T15:32:27;8.30;99.90
9193;DHT22;4631;49.296;10.560;2023-04-03T15:34:56;8.50;99.90
9193;DHT22;4631;49.296;10.560;2023-04-03T15:37:23;8.50;99.90
9193;DHT22;4631;49.296;10.560;2023-04-03T15:39:49;8.50;99.90
9193;DHT22;4631;49.296;10.560;2023-04-03T15:42:16;8.50;99.90
9193;DHT22;4631;49.296;10.560;2023-04-03T15:44:43;8.50;99.90
9193;DHT22;4631;49.296;10.560;2023-04-03T15:47:09;8.70;99.90
9193;DHT22;4631;49.296;10.560;2023-04-03T15:49:36;8.90;99.90
9193;DHT22;4631;49.296;10.560;2023-04-03T15:52:04;9.00;99.90
9193;DHT22;4631;49.296;10.560;2023-04-03T15:54:30;8.80;99.90
9193;DHT22;4631;49.296;10.560;2023-04-03T15:56:57;8.80;99.90
9193;DHT22;4631;49.296;10.560;2023-04-03T15:59:24;8.80;99.90
9193;DHT22;4631;49.296;10.560;2023-04-03T16:01:50;8.50;99.90
9193;DHT22;4631;49.296;10.560;2023-04-03T16:04:17;8.20;99.90
9193;DHT22;4631;49.296;10.560;2023-04-03T16:06:45;7.90;99.90
9193;DHT22;4631;49.296;10.560;2023-04-03T16:09:14;7.50;99.90
9193;DHT22;4631;49.296;10.560;2023-04-03T16:11:40;7.60;99.90
9193;DHT22;4631;49.296;10.560;2023-04-03T16:14:08;7.70;99.90
9193;DHT22;4631;49.296;10.560;2023-04-03T16:16:35;7.80;99.90
9193;DHT22;4631;49.296;10.560;2023-04-03T16:19:02;8.10;99.90
9193;DHT22;4631;49.296;10.560;2023-04-03T16:21:29;8.10;99.90
9193;DHT22;4631;49.296;10.560;2023-04-03T16:23:56;8.00;99.90
9193;DHT22;4631;49.296;10.560;2023-04-03T16:26:27;8.00;99.90
9193;DHT22;4631;49.296;10.560;2023-04-03T16:28:54;8.00;99.90
9193;DHT22;4631;49.296;10.560;2023-04-03T16:31:21;7.90;99.90